GAIRM EGBJ-EGBJ
Flight info
| Callsign | GAIRM |
|---|---|
| Flight time | 0h 49m |
| Altitude | 2500 |
| Route | DEPARTING NORTH FOR LOCAL FLIGHT SKILLS PRACTICE |
| Aircraft | DA40/L-VGD/N |
Departure
| Time | 2026-04-18 18:39 |
|---|---|
| Airport | Gloucestershire Airport (EGBJ) |
Arrival
| Time | 2026-04-18 19:29 |
|---|---|
| Airport | Gloucestershire Airport (EGBJ) |
| Time | Latitude | Longitude | Altitude | Speed | Heading |
|---|---|---|---|---|---|
| 2026-04-18 18:31 | 51.89245 | -2.16019 | 87 ft | 0 kts | 105° |
| 2026-04-18 18:36 | 51.89245 | -2.16018 | 87 ft | 2 kts | 104° |
| 2026-04-18 18:36 | 51.89246 | -2.15991 | 89 ft | 0 kts | 333° |
| 2026-04-18 18:36 | 51.89262 | -2.16088 | 87 ft | 17 kts | 331° |
| 2026-04-18 18:36 | 51.89358 | -2.16005 | 88 ft | 16 kts | 37° |
| 2026-04-18 18:37 | 51.89385 | -2.15972 | 89 ft | 0 kts | 33° |
| 2026-04-18 18:38 | 51.89387 | -2.15970 | 89 ft | 4 kts | 34° |
| 2026-04-18 18:38 | 51.89457 | -2.15969 | 89 ft | 14 kts | 281° |
| 2026-04-18 18:38 | 51.89436 | -2.16327 | 84 ft | 60 kts | 264° |
| 2026-04-18 18:39 | 51.89385 | -2.17182 | 169 ft | 82 kts | 266° |
| 2026-04-18 18:39 | 51.89324 | -2.18081 | 411 ft | 77 kts | 261° |
| 2026-04-18 18:39 | 51.89237 | -2.18989 | 647 ft | 86 kts | 263° |
| 2026-04-18 18:39 | 51.89192 | -2.19926 | 980 ft | 84 kts | 282° |
| 2026-04-18 18:40 | 51.89535 | -2.20705 | 1281 ft | 86 kts | 326° |
| 2026-04-18 18:40 | 51.90114 | -2.20936 | 1577 ft | 90 kts | 350° |
| 2026-04-18 18:40 | 51.90706 | -2.21070 | 1941 ft | 83 kts | 348° |
| 2026-04-18 18:40 | 51.91312 | -2.21130 | 2220 ft | 89 kts | 356° |
| 2026-04-18 18:41 | 51.91909 | -2.21175 | 2508 ft | 94 kts | 356° |
| 2026-04-18 18:41 | 51.92589 | -2.21228 | 2637 ft | 104 kts | 357° |
| 2026-04-18 18:41 | 51.93349 | -2.21257 | 2660 ft | 118 kts | 356° |
| 2026-04-18 18:41 | 51.94220 | -2.21266 | 2598 ft | 127 kts | 359° |
| 2026-04-18 18:42 | 51.95101 | -2.21228 | 2482 ft | 127 kts | 360° |
| 2026-04-18 18:42 | 51.95951 | -2.21190 | 2584 ft | 117 kts | 359° |
| 2026-04-18 18:42 | 51.96755 | -2.21162 | 2629 ft | 119 kts | 358° |
| 2026-04-18 18:42 | 51.97641 | -2.21134 | 2570 ft | 126 kts | 359° |
| 2026-04-18 18:43 | 51.99418 | -2.21155 | 2597 ft | 126 kts | 355° |
| 2026-04-18 18:43 | 52.00291 | -2.21294 | 2589 ft | 128 kts | 352° |
| 2026-04-18 18:43 | 52.01171 | -2.21475 | 2612 ft | 126 kts | 347° |
| 2026-04-18 18:44 | 52.01996 | -2.21925 | 2613 ft | 126 kts | 329° |
| 2026-04-18 18:44 | 52.02645 | -2.22871 | 2596 ft | 126 kts | 302° |
| 2026-04-18 18:44 | 52.02943 | -2.24188 | 2612 ft | 124 kts | 280° |
| 2026-04-18 18:44 | 52.02999 | -2.25556 | 2643 ft | 123 kts | 266° |
| 2026-04-18 18:45 | 52.02843 | -2.26914 | 2637 ft | 124 kts | 252° |
| 2026-04-18 18:45 | 52.02477 | -2.28189 | 2661 ft | 124 kts | 238° |
| 2026-04-18 18:45 | 52.02266 | -2.29475 | 2683 ft | 121 kts | 290° |
| 2026-04-18 18:45 | 52.02774 | -2.30581 | 2657 ft | 126 kts | 309° |
| 2026-04-18 18:46 | 52.03314 | -2.31694 | 2692 ft | 124 kts | 308° |
| 2026-04-18 18:46 | 52.04084 | -2.32111 | 2685 ft | 130 kts | 12° |
| 2026-04-18 18:46 | 52.04968 | -2.31675 | 2664 ft | 130 kts | 15° |
| 2026-04-18 18:46 | 52.05830 | -2.31329 | 2658 ft | 131 kts | 7° |
| 2026-04-18 18:47 | 52.06742 | -2.31225 | 2632 ft | 131 kts | 357° |
| 2026-04-18 18:47 | 52.07641 | -2.31312 | 2649 ft | 129 kts | 351° |
| 2026-04-18 18:47 | 52.08520 | -2.31637 | 2620 ft | 130 kts | 339° |
| 2026-04-18 18:47 | 52.09359 | -2.32157 | 2631 ft | 128 kts | 337° |
| 2026-04-18 18:48 | 52.10146 | -2.32726 | 2603 ft | 129 kts | 329° |
| 2026-04-18 18:48 | 52.10929 | -2.33480 | 2628 ft | 125 kts | 322° |
| 2026-04-18 18:48 | 52.11570 | -2.34415 | 2635 ft | 126 kts | 313° |
| 2026-04-18 18:48 | 52.12173 | -2.35440 | 2660 ft | 125 kts | 309° |
| 2026-04-18 18:49 | 52.12683 | -2.36524 | 2687 ft | 125 kts | 305° |
| 2026-04-18 18:49 | 52.13163 | -2.37755 | 2684 ft | 126 kts | 294° |
| 2026-04-18 18:49 | 52.13470 | -2.39074 | 2720 ft | 124 kts | 287° |
| 2026-04-18 18:49 | 52.13654 | -2.40453 | 2711 ft | 126 kts | 276° |
| 2026-04-18 18:50 | 52.13679 | -2.41865 | 2719 ft | 124 kts | 269° |
| 2026-04-18 18:50 | 52.13572 | -2.43265 | 2717 ft | 125 kts | 256° |
| 2026-04-18 18:50 | 52.13336 | -2.44645 | 2687 ft | 128 kts | 254° |
| 2026-04-18 18:50 | 52.13112 | -2.46036 | 2702 ft | 126 kts | 256° |
| 2026-04-18 18:51 | 52.12892 | -2.47418 | 2681 ft | 127 kts | 254° |
| 2026-04-18 18:51 | 52.12658 | -2.48812 | 2699 ft | 126 kts | 255° |
| 2026-04-18 18:51 | 52.12384 | -2.50166 | 2691 ft | 127 kts | 257° |
| 2026-04-18 18:51 | 52.12653 | -2.51546 | 2458 ft | 141 kts | 316° |
| 2026-04-18 18:52 | 52.13462 | -2.52215 | 2656 ft | 124 kts | 343° |
| 2026-04-18 18:52 | 52.14056 | -2.52291 | 2544 ft | 134 kts | 358° |
| 2026-04-18 18:52 | 52.15262 | -2.52325 | 2617 ft | 128 kts | 357° |
| 2026-04-18 18:52 | 52.16173 | -2.52313 | 2584 ft | 131 kts | 359° |
| 2026-04-18 18:53 | 52.17076 | -2.52316 | 2609 ft | 129 kts | 358° |
| 2026-04-18 18:53 | 52.17672 | -2.52342 | 2606 ft | 130 kts | 355° |
| 2026-04-18 18:53 | 52.18864 | -2.52417 | 2620 ft | 129 kts | 355° |
| 2026-04-18 18:53 | 52.19469 | -2.52458 | 2623 ft | 129 kts | 356° |
| 2026-04-18 18:54 | 52.20659 | -2.52553 | 2611 ft | 130 kts | 359° |
| 2026-04-18 18:54 | 52.21570 | -2.52516 | 2598 ft | 130 kts | 356° |
| 2026-04-18 18:54 | 52.22480 | -2.52578 | 2560 ft | 132 kts | 355° |
| 2026-04-18 18:54 | 52.23389 | -2.52690 | 2566 ft | 130 kts | 352° |
| 2026-04-18 18:55 | 52.24290 | -2.52888 | 2544 ft | 130 kts | 348° |
| 2026-04-18 18:55 | 52.24873 | -2.53074 | 2480 ft | 130 kts | 346° |
| 2026-04-18 18:55 | 52.25769 | -2.53437 | 2414 ft | 132 kts | 342° |
| 2026-04-18 18:55 | 52.26614 | -2.53903 | 2464 ft | 127 kts | 336° |
| 2026-04-18 18:56 | 52.27440 | -2.54508 | 2393 ft | 131 kts | 336° |
| 2026-04-18 18:56 | 52.28587 | -2.55033 | 2397 ft | 131 kts | 353° |
| 2026-04-18 18:56 | 52.29504 | -2.55013 | 2427 ft | 128 kts | 1° |
| 2026-04-18 18:56 | 52.30095 | -2.54961 | 2476 ft | 125 kts | 0° |
| 2026-04-18 18:57 | 52.30971 | -2.54876 | 2457 ft | 128 kts | 1° |
| 2026-04-18 18:57 | 52.31847 | -2.54883 | 2471 ft | 127 kts | 352° |
| 2026-04-18 18:57 | 52.32685 | -2.55257 | 2444 ft | 126 kts | 332° |
| 2026-04-18 18:57 | 52.33342 | -2.56192 | 2402 ft | 125 kts | 303° |
| 2026-04-18 18:58 | 52.33625 | -2.57499 | 2212 ft | 125 kts | 275° |
| 2026-04-18 18:58 | 52.33513 | -2.58894 | 2025 ft | 126 kts | 251° |
| 2026-04-18 18:58 | 52.33071 | -2.60118 | 1883 ft | 124 kts | 230° |
| 2026-04-18 18:58 | 52.32399 | -2.61031 | 1697 ft | 127 kts | 216° |
| 2026-04-18 18:59 | 52.31688 | -2.61835 | 1588 ft | 123 kts | 215° |
| 2026-04-18 18:59 | 52.30987 | -2.62632 | 1439 ft | 126 kts | 217° |
| 2026-04-18 18:59 | 52.30292 | -2.63469 | 1470 ft | 122 kts | 219° |
| 2026-04-18 18:59 | 52.29653 | -2.64385 | 1456 ft | 124 kts | 233° |
| 2026-04-18 19:00 | 52.29290 | -2.65646 | 1444 ft | 123 kts | 257° |
| 2026-04-18 19:00 | 52.29107 | -2.66985 | 1510 ft | 119 kts | 256° |
| 2026-04-18 19:00 | 52.28884 | -2.68308 | 1493 ft | 123 kts | 252° |
| 2026-04-18 19:00 | 52.28535 | -2.69566 | 1529 ft | 122 kts | 239° |
| 2026-04-18 19:01 | 52.27974 | -2.70609 | 1539 ft | 124 kts | 220° |
| 2026-04-18 19:01 | 52.27211 | -2.71220 | 1557 ft | 125 kts | 194° |
| 2026-04-18 19:01 | 52.26333 | -2.71187 | 1562 ft | 129 kts | 165° |
| 2026-04-18 19:01 | 52.25577 | -2.70418 | 1592 ft | 131 kts | 132° |
| 2026-04-18 19:02 | 52.25221 | -2.69069 | 1583 ft | 134 kts | 95° |
| 2026-04-18 19:02 | 52.25464 | -2.67634 | 1577 ft | 134 kts | 52° |
| 2026-04-18 19:02 | 52.26234 | -2.66890 | 1551 ft | 132 kts | 5° |
| 2026-04-18 19:02 | 52.27072 | -2.67325 | 1520 ft | 129 kts | 314° |
| 2026-04-18 19:03 | 52.27564 | -2.68504 | 1612 ft | 119 kts | 300° |
| 2026-04-18 19:03 | 52.27967 | -2.69671 | 1598 ft | 123 kts | 297° |
| 2026-04-18 19:03 | 52.28330 | -2.70952 | 1634 ft | 120 kts | 288° |
| 2026-04-18 19:04 | 52.28701 | -2.73617 | 1672 ft | 122 kts | 283° |
| 2026-04-18 19:04 | 52.28864 | -2.74959 | 1704 ft | 121 kts | 277° |
| 2026-04-18 19:04 | 52.28895 | -2.76345 | 1710 ft | 122 kts | 269° |
| 2026-04-18 19:04 | 52.28867 | -2.77723 | 1747 ft | 121 kts | 268° |
| 2026-04-18 19:05 | 52.28836 | -2.79081 | 1752 ft | 122 kts | 268° |
| 2026-04-18 19:05 | 52.28614 | -2.81840 | 1760 ft | 123 kts | 255° |
| 2026-04-18 19:05 | 52.28316 | -2.83134 | 1788 ft | 121 kts | 244° |
| 2026-04-18 19:06 | 52.27831 | -2.84282 | 1789 ft | 125 kts | 229° |
| 2026-04-18 19:06 | 52.26548 | -2.86100 | 1866 ft | 124 kts | 216° |
| 2026-04-18 19:06 | 52.25777 | -2.86744 | 1881 ft | 125 kts | 200° |
| 2026-04-18 19:07 | 52.24917 | -2.86957 | 1905 ft | 127 kts | 179° |
| 2026-04-18 19:07 | 52.24075 | -2.86555 | 1894 ft | 130 kts | 150° |
| 2026-04-18 19:07 | 52.23459 | -2.85468 | 1899 ft | 132 kts | 117° |
| 2026-04-18 19:07 | 52.23284 | -2.84014 | 1930 ft | 131 kts | 85° |
| 2026-04-18 19:08 | 52.23589 | -2.82644 | 1930 ft | 132 kts | 53° |
| 2026-04-18 19:08 | 52.24291 | -2.81726 | 1944 ft | 130 kts | 20° |
| 2026-04-18 19:08 | 52.25172 | -2.81654 | 1918 ft | 130 kts | 339° |
| 2026-04-18 19:08 | 52.25800 | -2.82640 | 1884 ft | 130 kts | 289° |
| 2026-04-18 19:09 | 52.25651 | -2.84033 | 1837 ft | 132 kts | 230° |
| 2026-04-18 19:09 | 52.24789 | -2.84430 | 1729 ft | 141 kts | 163° |
| 2026-04-18 19:09 | 52.24263 | -2.83227 | 1791 ft | 133 kts | 84° |
| 2026-04-18 19:09 | 52.24815 | -2.82055 | 1659 ft | 141 kts | 29° |
| 2026-04-18 19:10 | 52.25623 | -2.81384 | 1864 ft | 123 kts | 25° |
| 2026-04-18 19:10 | 52.26100 | -2.80189 | 1821 ft | 130 kts | 82° |
| 2026-04-18 19:10 | 52.25928 | -2.78819 | 1925 ft | 124 kts | 119° |
| 2026-04-18 19:10 | 52.25390 | -2.77691 | 1846 ft | 131 kts | 139° |
| 2026-04-18 19:11 | 52.24660 | -2.76828 | 1872 ft | 128 kts | 148° |
| 2026-04-18 19:11 | 52.23908 | -2.76056 | 1866 ft | 129 kts | 157° |
| 2026-04-18 19:11 | 52.23072 | -2.75552 | 1923 ft | 125 kts | 163° |
| 2026-04-18 19:11 | 52.22243 | -2.75075 | 1919 ft | 128 kts | 161° |
| 2026-04-18 19:12 | 52.21408 | -2.74558 | 1951 ft | 128 kts | 158° |
| 2026-04-18 19:12 | 52.20698 | -2.73788 | 1919 ft | 133 kts | 140° |
| 2026-04-18 19:12 | 52.19983 | -2.72775 | 1954 ft | 131 kts | 140° |
| 2026-04-18 19:12 | 52.19285 | -2.71812 | 1961 ft | 133 kts | 140° |
| 2026-04-18 19:13 | 52.18644 | -2.70749 | 2002 ft | 132 kts | 128° |
| 2026-04-18 19:13 | 52.18148 | -2.69505 | 2068 ft | 130 kts | 120° |
| 2026-04-18 19:13 | 52.17738 | -2.68178 | 2082 ft | 131 kts | 114° |
| 2026-04-18 19:13 | 52.17355 | -2.66828 | 2095 ft | 131 kts | 116° |
| 2026-04-18 19:14 | 52.16834 | -2.65588 | 2083 ft | 132 kts | 129° |
| 2026-04-18 19:14 | 52.16257 | -2.64454 | 2138 ft | 130 kts | 135° |
| 2026-04-18 19:14 | 52.15629 | -2.63372 | 2136 ft | 132 kts | 134° |
| 2026-04-18 19:14 | 52.15017 | -2.62326 | 2188 ft | 129 kts | 140° |
| 2026-04-18 19:15 | 52.14318 | -2.61380 | 2159 ft | 133 kts | 136° |
| 2026-04-18 19:15 | 52.13695 | -2.60290 | 2209 ft | 130 kts | 134° |
| 2026-04-18 19:15 | 52.13080 | -2.59210 | 2217 ft | 131 kts | 133° |
| 2026-04-18 19:15 | 52.12476 | -2.58104 | 2241 ft | 130 kts | 131° |
| 2026-04-18 19:16 | 52.11916 | -2.56943 | 2254 ft | 131 kts | 127° |
| 2026-04-18 19:16 | 52.11397 | -2.55723 | 2258 ft | 132 kts | 126° |
| 2026-04-18 19:16 | 52.10883 | -2.54491 | 2277 ft | 131 kts | 125° |
| 2026-04-18 19:16 | 52.10371 | -2.53289 | 2294 ft | 131 kts | 126° |
| 2026-04-18 19:17 | 52.09838 | -2.52090 | 2305 ft | 131 kts | 127° |
| 2026-04-18 19:17 | 52.09313 | -2.50883 | 2325 ft | 130 kts | 125° |
| 2026-04-18 19:17 | 52.08803 | -2.49655 | 2322 ft | 131 kts | 124° |
| 2026-04-18 19:17 | 52.08306 | -2.48420 | 2345 ft | 130 kts | 124° |
| 2026-04-18 19:18 | 52.07789 | -2.47208 | 2353 ft | 131 kts | 126° |
| 2026-04-18 19:18 | 52.07224 | -2.46062 | 2347 ft | 131 kts | 133° |
| 2026-04-18 19:18 | 52.06614 | -2.44948 | 2368 ft | 130 kts | 131° |
| 2026-04-18 19:18 | 52.06019 | -2.43836 | 2362 ft | 131 kts | 133° |
| 2026-04-18 19:19 | 52.05426 | -2.42744 | 2375 ft | 130 kts | 131° |
| 2026-04-18 19:19 | 52.04843 | -2.41613 | 2383 ft | 131 kts | 130° |
| 2026-04-18 19:19 | 52.04271 | -2.40463 | 2391 ft | 130 kts | 130° |
| 2026-04-18 19:19 | 52.03690 | -2.39333 | 2384 ft | 130 kts | 130° |
| 2026-04-18 19:20 | 52.03121 | -2.38203 | 2376 ft | 131 kts | 131° |
| 2026-04-18 19:20 | 52.02497 | -2.37121 | 2388 ft | 131 kts | 136° |
| 2026-04-18 19:20 | 52.01857 | -2.36060 | 2387 ft | 131 kts | 136° |
| 2026-04-18 19:20 | 52.01212 | -2.35016 | 2399 ft | 131 kts | 138° |
| 2026-04-18 19:21 | 52.00534 | -2.34045 | 2415 ft | 130 kts | 141° |
| 2026-04-18 19:21 | 51.99844 | -2.33116 | 2420 ft | 130 kts | 142° |
| 2026-04-18 19:21 | 51.99142 | -2.32197 | 2451 ft | 129 kts | 142° |
| 2026-04-18 19:21 | 51.98442 | -2.31276 | 2438 ft | 131 kts | 141° |
| 2026-04-18 19:22 | 51.97745 | -2.30355 | 2422 ft | 125 kts | 144° |
| 2026-04-18 19:22 | 51.97052 | -2.29514 | 2202 ft | 123 kts | 144° |
| 2026-04-18 19:22 | 51.96380 | -2.28686 | 1884 ft | 119 kts | 143° |
| 2026-04-18 19:22 | 51.95735 | -2.27903 | 1641 ft | 114 kts | 144° |
| 2026-04-18 19:23 | 51.95128 | -2.27083 | 1356 ft | 113 kts | 137° |
| 2026-04-18 19:23 | 51.94613 | -2.26244 | 1270 ft | 101 kts | 134° |
| 2026-04-18 19:23 | 51.94168 | -2.25361 | 1151 ft | 103 kts | 127° |
| 2026-04-18 19:23 | 51.93746 | -2.24427 | 1105 ft | 101 kts | 128° |
| 2026-04-18 19:24 | 51.93318 | -2.23550 | 1050 ft | 101 kts | 130° |
| 2026-04-18 19:24 | 51.92879 | -2.22674 | 1080 ft | 95 kts | 131° |
| 2026-04-18 19:24 | 51.92465 | -2.21872 | 1087 ft | 92 kts | 130° |
| 2026-04-18 19:24 | 51.92178 | -2.20978 | 1143 ft | 87 kts | 101° |
| 2026-04-18 19:25 | 51.92085 | -2.19994 | 1151 ft | 89 kts | 99° |
| 2026-04-18 19:25 | 51.91985 | -2.18972 | 1063 ft | 101 kts | 102° |
| 2026-04-18 19:25 | 51.91848 | -2.17853 | 989 ft | 104 kts | 98° |
| 2026-04-18 19:25 | 51.91778 | -2.16654 | 905 ft | 105 kts | 92° |
| 2026-04-18 19:26 | 51.91785 | -2.15479 | 851 ft | 106 kts | 86° |
| 2026-04-18 19:26 | 51.91834 | -2.14311 | 866 ft | 97 kts | 85° |
| 2026-04-18 19:26 | 51.91897 | -2.13215 | 808 ft | 102 kts | 85° |
| 2026-04-18 19:26 | 51.91926 | -2.12106 | 813 ft | 93 kts | 99° |
| 2026-04-18 19:27 | 51.91466 | -2.11640 | 813 ft | 81 kts | 182° |
| 2026-04-18 19:27 | 51.90887 | -2.11649 | 738 ft | 84 kts | 184° |
| 2026-04-18 19:27 | 51.90295 | -2.11709 | 693 ft | 86 kts | 188° |
| 2026-04-18 19:27 | 51.89718 | -2.11847 | 678 ft | 87 kts | 193° |
| 2026-04-18 19:28 | 51.89371 | -2.12487 | 616 ft | 76 kts | 265° |
| 2026-04-18 19:28 | 51.89471 | -2.13310 | 503 ft | 71 kts | 287° |
| 2026-04-18 19:28 | 51.89569 | -2.14091 | 337 ft | 71 kts | 272° |
| 2026-04-18 19:28 | 51.89540 | -2.14882 | 243 ft | 71 kts | 263° |
| 2026-04-18 19:29 | 51.89486 | -2.15664 | 151 ft | 70 kts | 264° |
| 2026-04-18 19:29 | 51.89431 | -2.16398 | 86 ft | 54 kts | 261° |
| 2026-04-18 19:29 | 51.89399 | -2.16845 | 82 ft | 32 kts | 263° |
| 2026-04-18 19:29 | 51.89374 | -2.17230 | 76 ft | 35 kts | 263° |
| 2026-04-18 19:30 | 51.89352 | -2.17533 | 71 ft | 12 kts | 256° |
| 2026-04-18 19:30 | 51.89303 | -2.17520 | 66 ft | 13 kts | 136° |
| 2026-04-18 19:30 | 51.89196 | -2.17348 | 73 ft | 28 kts | 133° |
| 2026-04-18 19:30 | 51.89026 | -2.17164 | 91 ft | 29 kts | 148° |
| 2026-04-18 19:31 | 51.88907 | -2.16933 | 98 ft | 26 kts | 114° |
| 2026-04-18 19:31 | 51.88861 | -2.16677 | 97 ft | 24 kts | 82° |
| 2026-04-18 19:31 | 51.88958 | -2.16503 | 94 ft | 18 kts | 1° |
| 2026-04-18 19:31 | 51.89038 | -2.16413 | 93 ft | 17 kts | 76° |
| 2026-04-18 19:32 | 51.89129 | -2.16261 | 89 ft | 25 kts | 35° |
| 2026-04-18 19:32 | 51.89253 | -2.16111 | 88 ft | 12 kts | 63° |
| 2026-04-18 19:32 | 51.89243 | -2.16038 | 89 ft | 6 kts | 92° |
| 2026-04-18 19:32 | 51.89243 | -2.16019 | 87 ft | 0 kts | 92° |
| 2026-04-18 19:33 | 51.89243 | -2.16020 | 87 ft | 0 kts | 92° |